sensor_id;sensor_type;location;lat;lon;timestamp;pressure;altitude;pressure_sealevel;temperature;humidity
62333;BME280;48624;49.812;8.562;2024-01-30T00:02:12;101994.97;;;0.27;100.00
62333;BME280;48624;49.812;8.562;2024-01-30T00:04:38;101992.34;;;0.31;100.00
62333;BME280;48624;49.812;8.562;2024-01-30T00:07:03;101994.09;;;0.29;100.00
62333;BME280;48624;49.812;8.562;2024-01-30T00:09:28;101990.63;;;0.34;100.00
62333;BME280;48624;49.812;8.562;2024-01-30T00:11:54;101991.47;;;0.36;100.00
62333;BME280;48624;49.812;8.562;2024-01-30T00:14:19;101993.22;;;0.39;100.00
62333;BME280;48624;49.812;8.562;2024-01-30T00:16:44;101994.09;;;0.38;100.00
62333;BME280;48624;49.812;8.562;2024-01-30T00:19:10;102008.88;;;0.17;100.00
62333;BME280;48624;49.812;8.562;2024-01-30T00:21:35;102003.66;;;0.06;100.00
62333;BME280;48624;49.812;8.562;2024-01-30T00:24:02;102001.88;;;-0.01;100.00
62333;BME280;48624;49.812;8.562;2024-01-30T00:26:27;101992.34;;;-0.01;100.00
62333;BME280;48624;49.812;8.562;2024-01-30T00:28:53;101998.44;;;0.03;100.00
62333;BME280;48624;49.812;8.562;2024-01-30T00:31:18;101996.69;;;0.05;100.00
62333;BME280;48624;49.812;8.562;2024-01-30T00:33:43;101999.25;;;-0.24;100.00
62333;BME280;48624;49.812;8.562;2024-01-30T00:36:09;102002.72;;;-0.21;100.00
62333;BME280;48624;49.812;8.562;2024-01-30T00:38:35;101995.81;;;-0.14;100.00
62333;BME280;48624;49.812;8.562;2024-01-30T00:41:00;102001.03;;;0.02;100.00
62333;BME280;48624;49.812;8.562;2024-01-30T00:43:27;102001.03;;;0.11;100.00
62333;BME280;48624;49.812;8.562;2024-01-30T00:45:52;102001.06;;;0.12;100.00
62333;BME280;48624;49.812;8.562;2024-01-30T00:48:18;102002.78;;;0.07;100.00
62333;BME280;48624;49.812;8.562;2024-01-30T00:50:43;101993.22;;;0.08;100.00
62333;BME280;48624;49.812;8.562;2024-01-30T00:53:08;102001.03;;;0.06;100.00
62333;BME280;48624;49.812;8.562;2024-01-30T00:55:34;101994.97;;;0.07;100.00
62333;BME280;48624;49.812;8.562;2024-01-30T00:57:59;101999.31;;;0.13;100.00
62333;BME280;48624;49.812;8.562;2024-01-30T01:00:24;101996.69;;;0.10;100.00
62333;BME280;48624;49.812;8.562;2024-01-30T01:02:56;101994.09;;;0.10;100.00
62333;BME280;48624;49.812;8.562;2024-01-30T01:05:22;101997.56;;;0.04;100.00
62333;BME280;48624;49.812;8.562;2024-01-30T01:07:47;101995.84;;;0.11;100.00
62333;BME280;48624;49.812;8.562;2024-01-30T01:10:13;101995.81;;;0.06;100.00
62333;BME280;48624;49.812;8.562;2024-01-30T01:12:39;102000.16;;;0.12;100.00
62333;BME280;48624;49.812;8.562;2024-01-30T01:15:05;101997.59;;;0.10;100.00
62333;BME280;48624;49.812;8.562;2024-01-30T01:17:30;101995.81;;;0.05;100.00
62333;BME280;48624;49.812;8.562;2024-01-30T01:19:57;101996.69;;;0.32;100.00
62333;BME280;48624;49.812;8.562;2024-01-30T01:22:22;102002.78;;;0.13;100.00
62333;BME280;48624;49.812;8.562;2024-01-30T01:24:48;102002.78;;;0.06;100.00
62333;BME280;48624;49.812;8.562;2024-01-30T01:27:13;101999.31;;;0.15;100.00
62333;BME280;48624;49.812;8.562;2024-01-30T01:29:38;102011.44;;;0.09;100.00
62333;BME280;48624;49.812;8.562;2024-01-30T01:32:04;102008.00;;;0.13;100.00
62333;BME280;48624;49.812;8.562;2024-01-30T01:34:29;102006.28;;;0.12;100.00
62333;BME280;48624;49.812;8.562;2024-01-30T01:36:54;102001.91;;;0.04;100.00
62333;BME280;48624;49.812;8.562;2024-01-30T01:39:20;101998.44;;;0.08;100.00
62333;BME280;48624;49.812;8.562;2024-01-30T01:41:46;101994.97;;;0.07;100.00
62333;BME280;48624;49.812;8.562;2024-01-30T01:44:11;101998.44;;;0.09;100.00
62333;BME280;48624;49.812;8.562;2024-01-30T01:46:36;102002.78;;;0.06;100.00
62333;BME280;48624;49.812;8.562;2024-01-30T01:49:03;101993.25;;;0.17;100.00
62333;BME280;48624;49.812;8.562;2024-01-30T01:51:31;101994.09;;;0.10;100.00
62333;BME280;48624;49.812;8.562;2024-01-30T01:53:57;101997.56;;;-0.02;100.00
62333;BME280;48624;49.812;8.562;2024-01-30T01:56:24;101996.69;;;-0.03;100.00
62333;BME280;48624;49.812;8.562;2024-01-30T01:58:49;101988.88;;;-0.04;100.00
62333;BME280;48624;49.812;8.562;2024-01-30T02:01:19;101987.16;;;0.06;100.00
62333;BME280;48624;49.812;8.562;2024-01-30T02:03:45;101984.53;;;-0.04;100.00
62333;BME280;48624;49.812;8.562;2024-01-30T02:06:12;101985.41;;;-0.06;100.00
62333;BME280;48624;49.812;8.562;2024-01-30T02:08:37;101988.00;;;-0.03;100.00
62333;BME280;48624;49.812;8.562;2024-01-30T02:11:03;101988.84;;;-0.06;100.00
62333;BME280;48624;49.812;8.562;2024-01-30T02:13:29;101996.69;;;-0.04;100.00
62333;BME280;48624;49.812;8.562;2024-01-30T02:15:54;102005.38;;;-0.08;100.00
62333;BME280;48624;49.812;8.562;2024-01-30T02:18:19;101993.22;;;-0.06;100.00
62333;BME280;48624;49.812;8.562;2024-01-30T02:20:46;101994.09;;;-0.04;100.00
62333;BME280;48624;49.812;8.562;2024-01-30T02:23:13;102000.16;;;-0.05;100.00
62333;BME280;48624;49.812;8.562;2024-01-30T02:25:40;101988.00;;;-0.08;100.00
62333;BME280;48624;49.812;8.562;2024-01-30T02:28:10;101986.25;;;-0.10;100.00
62333;BME280;48624;49.812;8.562;2024-01-30T02:30:36;101987.97;;;-0.20;100.00
62333;BME280;48624;49.812;8.562;2024-01-30T02:33:01;101987.09;;;-0.24;100.00
62333;BME280;48624;49.812;8.562;2024-01-30T02:35:28;101978.41;;;-0.28;100.00
62333;BME280;48624;49.812;8.562;2024-01-30T02:37:53;101988.81;;;-0.24;100.00
62333;BME280;48624;49.812;8.562;2024-01-30T02:40:18;101981.03;;;-0.31;100.00
62333;BME280;48624;49.812;8.562;2024-01-30T02:42:44;101986.19;;;-0.37;100.00
62333;BME280;48624;49.812;8.562;2024-01-30T02:45:10;101984.50;;;-0.32;100.00
62333;BME280;48624;49.812;8.562;2024-01-30T02:47:35;101991.41;;;-0.37;100.00
62333;BME280;48624;49.812;8.562;2024-01-30T02:50:00;101989.69;;;-0.29;100.00
62333;BME280;48624;49.812;8.562;2024-01-30T02:52:25;101992.31;;;-0.24;100.00
62333;BME280;48624;49.812;8.562;2024-01-30T02:54:51;101985.38;;;-0.28;100.00
62333;BME280;48624;49.812;8.562;2024-01-30T02:57:16;101988.84;;;-0.26;100.00
62333;BME280;48624;49.812;8.562;2024-01-30T02:59:41;101983.63;;;-0.23;100.00
62333;BME280;48624;49.812;8.562;2024-01-30T03:02:08;101983.63;;;-0.24;100.00
62333;BME280;48624;49.812;8.562;2024-01-30T03:04:33;101976.66;;;-0.25;100.00
62333;BME280;48624;49.812;8.562;2024-01-30T03:06:58;101974.09;;;-0.22;100.00
62333;BME280;48624;49.812;8.562;2024-01-30T03:09:24;101976.69;;;-0.15;100.00
62333;BME280;48624;49.812;8.562;2024-01-30T03:11:49;101975.78;;;-0.40;100.00
62333;BME280;48624;49.812;8.562;2024-01-30T03:14:14;101981.88;;;-0.36;100.00
62333;BME280;48624;49.812;8.562;2024-01-30T03:16:39;101979.25;;;-0.35;100.00
62333;BME280;48624;49.812;8.562;2024-01-30T03:19:08;101978.41;;;-0.35;100.00
62333;BME280;48624;49.812;8.562;2024-01-30T03:21:34;101982.75;;;-0.34;100.00
62333;BME280;48624;49.812;8.562;2024-01-30T03:23:59;101973.19;;;-0.32;100.00
62333;BME280;48624;49.812;8.562;2024-01-30T03:26:25;101974.03;;;-0.35;100.00
62333;BME280;48624;49.812;8.562;2024-01-30T03:28:50;101968.84;;;-0.41;100.00
62333;BME280;48624;49.812;8.562;2024-01-30T03:31:15;101975.78;;;-0.37;100.00
62333;BME280;48624;49.812;8.562;2024-01-30T03:33:41;101964.50;;;-0.40;100.00
62333;BME280;48624;49.812;8.562;2024-01-30T03:36:07;101974.91;;;-0.40;100.00
62333;BME280;48624;49.812;8.562;2024-01-30T03:38:33;101972.31;;;-0.42;100.00
62333;BME280;48624;49.812;8.562;2024-01-30T03:40:58;101980.97;;;-0.45;100.00
62333;BME280;48624;49.812;8.562;2024-01-30T03:43:24;101974.03;;;-0.44;100.00
62333;BME280;48624;49.812;8.562;2024-01-30T03:45:49;101976.63;;;-0.50;100.00
62333;BME280;48624;49.812;8.562;2024-01-30T03:48:15;101974.03;;;-0.44;100.00
62333;BME280;48624;49.812;8.562;2024-01-30T03:50:40;101978.38;;;-0.45;100.00
62333;BME280;48624;49.812;8.562;2024-01-30T03:53:05;101977.50;;;-0.48;100.00
62333;BME280;48624;49.812;8.562;2024-01-30T03:55:30;101980.06;;;-0.59;100.00
62333;BME280;48624;49.812;8.562;2024-01-30T03:57:56;101979.22;;;-0.53;100.00
62333;BME280;48624;49.812;8.562;2024-01-30T04:00:21;101971.41;;;-0.55;100.00
62333;BME280;48624;49.812;8.562;2024-01-30T04:02:46;101980.03;;;-0.68;100.00
62333;BME280;48624;49.812;8.562;2024-01-30T04:05:11;101980.06;;;-0.65;100.00
62333;BME280;48624;49.812;8.562;2024-01-30T04:07:37;101973.16;;;-0.54;100.00
62333;BME280;48624;49.812;8.562;2024-01-30T04:10:02;101974.88;;;-0.61;100.00
62333;BME280;48624;49.812;8.562;2024-01-30T04:12:31;101977.50;;;-0.56;100.00
62333;BME280;48624;49.812;8.562;2024-01-30T04:14:56;101990.50;;;-0.61;100.00
62333;BME280;48624;49.812;8.562;2024-01-30T04:17:21;101975.72;;;-0.66;100.00
62333;BME280;48624;49.812;8.562;2024-01-30T04:19:46;101971.38;;;-0.66;100.00
62333;BME280;48624;49.812;8.562;2024-01-30T04:22:12;101967.91;;;-0.66;100.00
62333;BME280;48624;49.812;8.562;2024-01-30T04:24:37;101972.25;;;-0.62;100.00
62333;BME280;48624;49.812;8.562;2024-01-30T04:27:02;101973.91;;;-0.81;100.00
62333;BME280;48624;49.812;8.562;2024-01-30T04:29:28;101968.72;;;-0.77;100.00
62333;BME280;48624;49.812;8.562;2024-01-30T04:31:53;101970.38;;;-0.93;100.00
62333;BME280;48624;49.812;8.562;2024-01-30T04:34:18;101970.44;;;-0.79;100.00
62333;BME280;48624;49.812;8.562;2024-01-30T04:36:46;101978.28;;;-0.77;100.00
62333;BME280;48624;49.812;8.562;2024-01-30T04:39:11;101979.13;;;-0.75;100.00
62333;BME280;48624;49.812;8.562;2024-01-30T04:41:38;101981.75;;;-0.72;100.00
62333;BME280;48624;49.812;8.562;2024-01-30T04:44:03;101975.66;;;-0.77;100.00
62333;BME280;48624;49.812;8.562;2024-01-30T04:46:28;101975.69;;;-0.73;100.00
62333;BME280;48624;49.812;8.562;2024-01-30T04:48:53;101969.66;;;-0.65;100.00
62333;BME280;48624;49.812;8.562;2024-01-30T04:51:20;101978.25;;;-0.82;100.00
62333;BME280;48624;49.812;8.562;2024-01-30T04:53:45;101986.13;;;-0.66;100.00
62333;BME280;48624;49.812;8.562;2024-01-30T04:56:11;101975.72;;;-0.66;100.00
62333;BME280;48624;49.812;8.562;2024-01-30T04:58:36;101981.78;;;-0.61;100.00
62333;BME280;48624;49.812;8.562;2024-01-30T05:01:02;101990.50;;;-0.61;100.00
62333;BME280;48624;49.812;8.562;2024-01-30T05:03:27;101991.25;;;-0.85;100.00
62333;BME280;48624;49.812;8.562;2024-01-30T05:05:53;101980.03;;;-0.67;100.00
62333;BME280;48624;49.812;8.562;2024-01-30T05:08:20;101989.53;;;-0.80;100.00
62333;BME280;48624;49.812;8.562;2024-01-30T05:10:45;101983.47;;;-0.74;100.00
62333;BME280;48624;49.812;8.562;2024-01-30T05:13:11;101989.56;;;-0.67;100.00
62333;BME280;48624;49.812;8.562;2024-01-30T05:15:38;101996.53;;;-0.68;100.00
62333;BME280;48624;49.812;8.562;2024-01-30T05:18:04;101999.09;;;-0.73;100.00
62333;BME280;48624;49.812;8.562;2024-01-30T05:20:30;101994.78;;;-0.67;100.00
62333;BME280;48624;49.812;8.562;2024-01-30T05:22:56;101994.78;;;-0.71;100.00
62333;BME280;48624;49.812;8.562;2024-01-30T05:25:21;101997.44;;;-0.55;100.00
62333;BME280;48624;49.812;8.562;2024-01-30T05:27:46;102000.84;;;-0.68;100.00
62333;BME280;48624;49.812;8.562;2024-01-30T05:30:12;102006.03;;;-0.73;100.00
62333;BME280;48624;49.812;8.562;2024-01-30T05:32:38;101999.97;;;-0.72;100.00
62333;BME280;48624;49.812;8.562;2024-01-30T05:35:03;101999.06;;;-0.82;100.00
62333;BME280;48624;49.812;8.562;2024-01-30T05:37:29;101996.50;;;-0.77;100.00
62333;BME280;48624;49.812;8.562;2024-01-30T05:39:54;101998.22;;;-0.73;100.00
62333;BME280;48624;49.812;8.562;2024-01-30T05:42:19;101997.38;;;-0.71;100.00
62333;BME280;48624;49.812;8.562;2024-01-30T05:44:45;101996.53;;;-0.71;100.00
62333;BME280;48624;49.812;8.562;2024-01-30T05:47:10;101993.06;;;-0.70;100.00
62333;BME280;48624;49.812;8.562;2024-01-30T05:49:35;101998.25;;;-0.64;100.00
62333;BME280;48624;49.812;8.562;2024-01-30T05:52:03;102000.00;;;-0.66;100.00
62333;BME280;48624;49.812;8.562;2024-01-30T05:54:28;101994.78;;;-0.74;100.00
62333;BME280;48624;49.812;8.562;2024-01-30T05:56:54;101996.53;;;-0.71;100.00
62333;BME280;48624;49.812;8.562;2024-01-30T05:59:19;102002.59;;;-0.63;100.00
62333;BME280;48624;49.812;8.562;2024-01-30T06:01:48;102002.63;;;-0.64;100.00
62333;BME280;48624;49.812;8.562;2024-01-30T06:04:13;102006.97;;;-0.57;100.00
62333;BME280;48624;49.812;8.562;2024-01-30T06:06:39;102002.59;;;-0.66;100.00
62333;BME280;48624;49.812;8.562;2024-01-30T06:09:05;102002.56;;;-0.75;100.00
62333;BME280;48624;49.812;8.562;2024-01-30T06:11:30;102001.75;;;-0.60;100.00
62333;BME280;48624;49.812;8.562;2024-01-30T06:13:56;102002.63;;;-0.60;100.00
62333;BME280;48624;49.812;8.562;2024-01-30T06:16:21;102000.00;;;-0.69;100.00
62333;BME280;48624;49.812;8.562;2024-01-30T06:18:48;101999.06;;;-0.84;100.00
62333;BME280;48624;49.812;8.562;2024-01-30T06:21:13;101999.13;;;-0.71;100.00
62333;BME280;48624;49.812;8.562;2024-01-30T06:23:38;101996.53;;;-0.62;100.00
62333;BME280;48624;49.812;8.562;2024-01-30T06:26:06;101987.84;;;-0.67;100.00
62333;BME280;48624;49.812;8.562;2024-01-30T06:28:31;101984.38;;;-0.74;100.00
62333;BME280;48624;49.812;8.562;2024-01-30T06:30:56;101989.56;;;-0.67;100.00
62333;BME280;48624;49.812;8.562;2024-01-30T06:33:22;101988.72;;;-0.65;100.00
62333;BME280;48624;49.812;8.562;2024-01-30T06:35:47;101987.88;;;-0.59;100.00
62333;BME280;48624;49.812;8.562;2024-01-30T06:38:13;101993.09;;;-0.61;100.00
62333;BME280;48624;49.812;8.562;2024-01-30T06:40:40;101983.53;;;-0.63;100.00
62333;BME280;48624;49.812;8.562;2024-01-30T06:43:05;101987.00;;;-0.58;100.00
62333;BME280;48624;49.812;8.562;2024-01-30T06:45:31;101988.75;;;-0.57;100.00
62333;BME280;48624;49.812;8.562;2024-01-30T06:47:56;101987.03;;;-0.55;100.00
62333;BME280;48624;49.812;8.562;2024-01-30T06:50:21;101996.56;;;-0.52;100.00
62333;BME280;48624;49.812;8.562;2024-01-30T06:52:47;101991.38;;;-0.54;100.00
62333;BME280;48624;49.812;8.562;2024-01-30T06:55:12;101997.41;;;-0.58;100.00
62333;BME280;48624;49.812;8.562;2024-01-30T06:57:37;101999.19;;;-0.46;100.00
62333;BME280;48624;49.812;8.562;2024-01-30T07:00:03;102000.06;;;-0.50;100.00
62333;BME280;48624;49.812;8.562;2024-01-30T07:02:28;102003.56;;;-0.47;100.00
62333;BME280;48624;49.812;8.562;2024-01-30T07:04:54;102012.19;;;-0.51;100.00
62333;BME280;48624;49.812;8.562;2024-01-30T07:07:19;102008.72;;;-0.50;100.00
62333;BME280;48624;49.812;8.562;2024-01-30T07:09:44;102009.63;;;-0.46;100.00
62333;BME280;48624;49.812;8.562;2024-01-30T07:12:09;102004.41;;;-0.45;100.00
62333;BME280;48624;49.812;8.562;2024-01-30T07:14:35;102007.03;;;-0.42;100.00
62333;BME280;48624;49.812;8.562;2024-01-30T07:17:00;102006.16;;;-0.40;100.00
62333;BME280;48624;49.812;8.562;2024-01-30T07:19:26;102010.53;;;-0.33;100.00
62333;BME280;48624;49.812;8.562;2024-01-30T07:21:51;102003.56;;;-0.31;100.00
62333;BME280;48624;49.812;8.562;2024-01-30T07:24:16;102001.81;;;-0.37;100.00
62333;BME280;48624;49.812;8.562;2024-01-30T07:26:41;101997.50;;;-0.36;100.00
62333;BME280;48624;49.812;8.562;2024-01-30T07:29:07;101998.38;;;-0.30;100.00
62333;BME280;48624;49.812;8.562;2024-01-30T07:31:32;101995.75;;;-0.31;100.00
62333;BME280;48624;49.812;8.562;2024-01-30T07:33:57;101999.25;;;-0.28;100.00
62333;BME280;48624;49.812;8.562;2024-01-30T07:36:23;101994.91;;;-0.21;100.00
62333;BME280;48624;49.812;8.562;2024-01-30T07:38:48;101991.44;;;-0.23;100.00
62333;BME280;48624;49.812;8.562;2024-01-30T07:41:13;101997.53;;;-0.27;100.00
62333;BME280;48624;49.812;8.562;2024-01-30T07:43:38;102008.81;;;-0.28;100.00
62333;BME280;48624;49.812;8.562;2024-01-30T07:46:05;101995.78;;;-0.26;100.00
62333;BME280;48624;49.812;8.562;2024-01-30T07:48:32;102011.44;;;-0.16;100.00
62333;BME280;48624;49.812;8.562;2024-01-30T07:50:59;102007.97;;;-0.13;100.00
62333;BME280;48624;49.812;8.562;2024-01-30T07:53:24;102011.44;;;-0.16;100.00
62333;BME280;48624;49.812;8.562;2024-01-30T07:55:52;102021.00;;;-0.13;100.00
62333;BME280;48624;49.812;8.562;2024-01-30T07:58:17;102021.88;;;-0.08;100.00
62333;BME280;48624;49.812;8.562;2024-01-30T08:00:42;102019.28;;;0.03;100.00
62333;BME280;48624;49.812;8.562;2024-01-30T08:03:08;102023.63;;;0.03;100.00
62333;BME280;48624;49.812;8.562;2024-01-30T08:05:33;102016.66;;;0.09;100.00
62333;BME280;48624;49.812;8.562;2024-01-30T08:07:58;102027.97;;;0.15;100.00
62333;BME280;48624;49.812;8.562;2024-01-30T08:10:23;102025.38;;;0.19;100.00
62333;BME280;48624;49.812;8.562;2024-01-30T08:12:49;102026.25;;;0.31;100.00
62333;BME280;48624;49.812;8.562;2024-01-30T08:15:14;102024.50;;;0.30;100.00
62333;BME280;48624;49.812;8.562;2024-01-30T08:17:39;102026.25;;;0.45;100.00
62333;BME280;48624;49.812;8.562;2024-01-30T08:20:06;102035.84;;;0.53;100.00
62333;BME280;48624;49.812;8.562;2024-01-30T08:22:32;102041.03;;;0.66;100.00
62333;BME280;48624;49.812;8.562;2024-01-30T08:24:57;102035.81;;;0.77;100.00
62333;BME280;48624;49.812;8.562;2024-01-30T08:27:22;102034.91;;;0.84;100.00
62333;BME280;48624;49.812;8.562;2024-01-30T08:29:48;102043.59;;;0.97;100.00
62333;BME280;48624;49.812;8.562;2024-01-30T08:32:13;102035.75;;;1.09;100.00
62333;BME280;48624;49.812;8.562;2024-01-30T08:34:38;102034.84;;;1.18;100.00
62333;BME280;48624;49.812;8.562;2024-01-30T08:37:04;102031.31;;;1.35;100.00
62333;BME280;48624;49.812;8.562;2024-01-30T08:39:29;102036.47;;;1.47;100.00
62333;BME280;48624;49.812;8.562;2024-01-30T08:41:55;102039.91;;;1.60;100.00
62333;BME280;48624;49.812;8.562;2024-01-30T08:44:20;102032.00;;;1.74;100.00
62333;BME280;48624;49.812;8.562;2024-01-30T08:46:46;102038.94;;;1.82;100.00
62333;BME280;48624;49.812;8.562;2024-01-30T08:49:12;102039.75;;;1.90;100.00
62333;BME280;48624;49.812;8.562;2024-01-30T08:51:40;102032.72;;;2.00;100.00
62333;BME280;48624;49.812;8.562;2024-01-30T08:54:05;102033.53;;;2.06;100.00
62333;BME280;48624;49.812;8.562;2024-01-30T08:56:31;102036.09;;;2.17;100.00
62333;BME280;48624;49.812;8.562;2024-01-30T08:58:56;102023.81;;;2.22;100.00
62333;BME280;48624;49.812;8.562;2024-01-30T09:01:21;102030.84;;;2.17;100.00
62333;BME280;48624;49.812;8.562;2024-01-30T09:03:47;102033.44;;;2.20;100.00
62333;BME280;48624;49.812;8.562;2024-01-30T09:06:12;102029.88;;;2.34;100.00
62333;BME280;48624;49.812;8.562;2024-01-30T09:08:38;102038.59;;;2.33;100.00
62333;BME280;48624;49.812;8.562;2024-01-30T09:11:11;102043.88;;;2.27;100.00
62333;BME280;48624;49.812;8.562;2024-01-30T09:13:37;102040.31;;;2.34;100.00
62333;BME280;48624;49.812;8.562;2024-01-30T09:16:03;102042.88;;;2.40;100.00
62333;BME280;48624;49.812;8.562;2024-01-30T09:18:28;102044.59;;;2.44;100.00
62333;BME280;48624;49.812;8.562;2024-01-30T09:20:53;102039.28;;;2.50;100.00
62333;BME280;48624;49.812;8.562;2024-01-30T09:23:19;102049.13;;;2.22;100.00
62333;BME280;48624;49.812;8.562;2024-01-30T09:25:44;102056.81;;;2.44;100.00
62333;BME280;48624;49.812;8.562;2024-01-30T09:28:10;102044.63;;;2.40;100.00
62333;BME280;48624;49.812;8.562;2024-01-30T09:30:35;102058.59;;;2.35;100.00
62333;BME280;48624;49.812;8.562;2024-01-30T09:33:01;102059.41;;;2.45;100.00
62333;BME280;48624;49.812;8.562;2024-01-30T09:35:26;102051.44;;;2.58;100.00
62333;BME280;48624;49.812;8.562;2024-01-30T09:37:51;102054.97;;;2.55;100.00
62333;BME280;48624;49.812;8.562;2024-01-30T09:40:17;102045.22;;;2.73;100.00
62333;BME280;48624;49.812;8.562;2024-01-30T09:42:49;102054.63;;;2.96;100.00
62333;BME280;48624;49.812;8.562;2024-01-30T09:45:19;102052.66;;;3.16;100.00
62333;BME280;48624;49.812;8.562;2024-01-30T09:47:46;102059.34;;;3.39;100.00
62333;BME280;48624;49.812;8.562;2024-01-30T09:50:13;102052.22;;;3.51;100.00
62333;BME280;48624;49.812;8.562;2024-01-30T09:52:40;102056.44;;;3.64;100.00
62333;BME280;48624;49.812;8.562;2024-01-30T09:55:06;102047.59;;;3.73;100.00
62333;BME280;48624;49.812;8.562;2024-01-30T09:57:32;102047.44;;;3.85;100.00
62333;BME280;48624;49.812;8.562;2024-01-30T09:59:57;102045.66;;;3.86;100.00
62333;BME280;48624;49.812;8.562;2024-01-30T10:02:23;102045.44;;;4.01;100.00
62333;BME280;48624;49.812;8.562;2024-01-30T10:04:49;102041.72;;;4.18;100.00
62333;BME280;48624;49.812;8.562;2024-01-30T10:07:15;102042.38;;;4.31;100.00
62333;BME280;48624;49.812;8.562;2024-01-30T10:09:40;102046.53;;;4.46;100.00
62333;BME280;48624;49.812;8.562;2024-01-30T10:12:06;102056.00;;;4.53;100.00
62333;BME280;48624;49.812;8.562;2024-01-30T10:14:31;102050.56;;;4.66;100.00
62333;BME280;48624;49.812;8.562;2024-01-30T10:17:01;102046.25;;;4.62;100.00
62333;BME280;48624;49.812;8.562;2024-01-30T10:19:27;102048.69;;;4.72;100.00
62333;BME280;48624;49.812;8.562;2024-01-30T10:21:52;102041.75;;;4.68;100.00
62333;BME280;48624;49.812;8.562;2024-01-30T10:24:18;102044.25;;;4.76;100.00
62333;BME280;48624;49.812;8.562;2024-01-30T10:26:44;102050.59;;;4.64;100.00
62333;BME280;48624;49.812;8.562;2024-01-30T10:29:09;102046.09;;;4.71;100.00
62333;BME280;48624;49.812;8.562;2024-01-30T10:31:34;102047.69;;;4.80;100.00
62333;BME280;48624;49.812;8.562;2024-01-30T10:34:00;102045.75;;;4.91;100.00
62333;BME280;48624;49.812;8.562;2024-01-30T10:36:28;102045.69;;;4.93;100.00
62333;BME280;48624;49.812;8.562;2024-01-30T10:38:59;102046.03;;;5.21;100.00
62333;BME280;48624;49.812;8.562;2024-01-30T10:41:31;102052.75;;;5.36;99.34
62333;BME280;48624;49.812;8.562;2024-01-30T10:44:09;102040.41;;;5.41;99.45
62333;BME280;48624;49.812;8.562;2024-01-30T10:46:35;102039.06;;;5.63;99.29
62333;BME280;48624;49.812;8.562;2024-01-30T10:49:02;102030.31;;;5.62;98.98
62333;BME280;48624;49.812;8.562;2024-01-30T10:51:29;102027.19;;;5.86;97.92
62333;BME280;48624;49.812;8.562;2024-01-30T10:53:56;102026.09;;;5.94;97.23
62333;BME280;48624;49.812;8.562;2024-01-30T10:56:21;102035.88;;;5.89;97.88
62333;BME280;48624;49.812;8.562;2024-01-30T10:58:51;102019.75;;;6.05;96.77
62333;BME280;48624;49.812;8.562;2024-01-30T11:01:20;102029.34;;;6.07;96.67
62333;BME280;48624;49.812;8.562;2024-01-30T11:03:52;102023.09;;;6.11;95.88
62333;BME280;48624;49.812;8.562;2024-01-30T11:06:18;102031.75;;;6.17;95.90
62333;BME280;48624;49.812;8.562;2024-01-30T11:08:45;102033.47;;;6.18;96.30
62333;BME280;48624;49.812;8.562;2024-01-30T11:11:10;102025.91;;;6.42;96.72
62333;BME280;48624;49.812;8.562;2024-01-30T11:13:36;102042.91;;;6.63;96.37
62333;BME280;48624;49.812;8.562;2024-01-30T11:16:02;102046.41;;;6.97;95.96
62333;BME280;48624;49.812;8.562;2024-01-30T11:18:32;102045.75;;;7.21;95.58
62333;BME280;48624;49.812;8.562;2024-01-30T11:21:00;102044.34;;;7.40;95.46
62333;BME280;48624;49.812;8.562;2024-01-30T11:23:28;102058.69;;;7.61;94.15
62333;BME280;48624;49.812;8.562;2024-01-30T11:25:54;102051.44;;;7.68;93.23
62333;BME280;48624;49.812;8.562;2024-01-30T11:28:21;102041.34;;;7.82;92.81
62333;BME280;48624;49.812;8.562;2024-01-30T11:30:47;102031.19;;;7.98;92.24
62333;BME280;48624;49.812;8.562;2024-01-30T11:33:27;102023.63;;;8.14;92.24
62333;BME280;48624;49.812;8.562;2024-01-30T11:35:53;102018.16;;;8.21;91.80
62333;BME280;48624;49.812;8.562;2024-01-30T11:38:19;102018.16;;;8.47;91.24
62333;BME280;48624;49.812;8.562;2024-01-30T11:40:45;102021.38;;;8.57;91.23
62333;BME280;48624;49.812;8.562;2024-01-30T11:43:11;102007.75;;;8.43;89.69
62333;BME280;48624;49.812;8.562;2024-01-30T11:45:38;102008.28;;;8.54;89.85
62333;BME280;48624;49.812;8.562;2024-01-30T11:48:05;102005.50;;;8.57;90.39
62333;BME280;48624;49.812;8.562;2024-01-30T11:50:31;101996.75;;;8.57;88.13
62333;BME280;48624;49.812;8.562;2024-01-30T11:52:56;101997.66;;;8.81;90.45
62333;BME280;48624;49.812;8.562;2024-01-30T11:55:23;102004.50;;;8.87;90.28
62333;BME280;48624;49.812;8.562;2024-01-30T11:57:48;101990.00;;;8.99;91.02
62333;BME280;48624;49.812;8.562;2024-01-30T12:00:15;101983.19;;;8.92;89.94
62333;BME280;48624;49.812;8.562;2024-01-30T12:02:40;101974.72;;;8.82;89.67
62333;BME280;48624;49.812;8.562;2024-01-30T12:05:06;101972.28;;;9.01;89.58
62333;BME280;48624;49.812;8.562;2024-01-30T12:07:33;101977.84;;;8.68;86.58
62333;BME280;48624;49.812;8.562;2024-01-30T12:09:59;101979.63;;;8.93;87.95
62333;BME280;48624;49.812;8.562;2024-01-30T12:12:26;101978.19;;;9.08;88.85
62333;BME280;48624;49.812;8.562;2024-01-30T12:14:53;101974.81;;;9.04;87.03
62333;BME280;48624;49.812;8.562;2024-01-30T12:17:32;101972.69;;;9.14;86.74
62333;BME280;48624;49.812;8.562;2024-01-30T12:20:08;101969.53;;;9.28;82.91
62333;BME280;48624;49.812;8.562;2024-01-30T12:22:41;101973.63;;;9.13;82.05
62333;BME280;48624;49.812;8.562;2024-01-30T12:25:12;101972.81;;;9.11;81.54
62333;BME280;48624;49.812;8.562;2024-01-30T12:27:39;101970.03;;;9.14;80.76
62333;BME280;48624;49.812;8.562;2024-01-30T12:30:08;101973.66;;;9.35;81.35
62333;BME280;48624;49.812;8.562;2024-01-30T12:32:38;101977.00;;;9.63;82.72
62333;BME280;48624;49.812;8.562;2024-01-30T12:35:07;101963.53;;;9.69;83.73
62333;BME280;48624;49.812;8.562;2024-01-30T12:37:32;101973.31;;;9.89;83.75
62333;BME280;48624;49.812;8.562;2024-01-30T12:39:58;101972.38;;;9.90;83.46
62333;BME280;48624;49.812;8.562;2024-01-30T12:42:23;101968.78;;;10.13;82.23